»·PEaware :: N604S KMRY-KRDD

N604S :: KMRY-KRDD

FLIGHT INFORMATION

Flight Status: Arrived
Operator: Privately registered:
United States
More flights under this callsign
Pilot: Luis Carlos C. (28559)
Aircraft: Unknown
(L35)
More flights by this aircraft type
Origin: KMRY Monterey Peninsula
United States
Destination: KRDD Redding Mun
United States
More flights between these airports :: More routes between these airports
Route: +MRY5 SHOEY V27 PYE RBL
File this flight plan on PilotEdge
Remarks:
Altitude:
(Current/Filed)
34,000ft
Speed:
(Current/Filed)
300kts
Departed: 27-Mar-20 04:02 PM
Arrived: 27-Mar-20 04:51 PM
Distance/Time
Traveled:
236nm/0:49
Distance/Time
To Go:
Arrived

Flight Plot

Page will automatically refresh every two minutes.

Flight plan parsing failed; only flown route is shown


Map Options




Map Legend


Flown Route
Filed Route
Departure Airport
Arrival Airport
Navaid (VOR, NDB)
Fix

Horizontal Profiles

Position Reports

Time Latitude Longitude Heading Altitude Ground
Speed
27-Mar-20 15:40 36.588835 -121.853877 245 207ft 0kts
27-Mar-20 15:41 36.588835 -121.853877 245 207ft 0kts
27-Mar-20 15:42 36.588835 -121.853877 245 207ft 0kts
27-Mar-20 15:43 36.588835 -121.853877 245 207ft 0kts
27-Mar-20 15:44 36.588835 -121.853877 245 207ft 0kts
27-Mar-20 15:45 36.588835 -121.853877 245 207ft 0kts
27-Mar-20 15:46 36.588835 -121.853877 245 207ft 0kts
27-Mar-20 15:47 36.588835 -121.853877 245 207ft 0kts
27-Mar-20 15:48 36.588835 -121.853877 245 207ft 0kts
27-Mar-20 15:49 36.588835 -121.853877 245 207ft 0kts
27-Mar-20 15:50 36.588835 -121.853877 245 207ft 0kts
27-Mar-20 15:51 36.588835 -121.853877 245 207ft 0kts
27-Mar-20 15:52 36.588835 -121.853877 245 207ft 0kts
27-Mar-20 15:53 36.588835 -121.853877 245 207ft 0kts
27-Mar-20 15:54 36.588835 -121.853877 245 207ft 0kts
27-Mar-20 15:55 36.588834 -121.853877 245 207ft 0kts
27-Mar-20 15:56 36.589054 -121.852836 106 207ft 6kts
27-Mar-20 15:57 36.588241 -121.850497 112 207ft 10kts
27-Mar-20 15:58 36.586520 -121.845792 119 207ft 18kts
27-Mar-20 15:59 36.584296 -121.839274 112 207ft 18kts
27-Mar-20 16:00 36.582902 -121.835018 105 207ft 11kts
27-Mar-20 16:01 36.585479 -121.839912 292 208ft 128kts
27-Mar-20 16:02 36.620825 -121.883357 0 3793ft 186kts
27-Mar-20 16:03 36.671964 -121.900422 342 6215ft 207kts
27-Mar-20 16:04 36.718680 -121.957690 278 6729ft 273kts
27-Mar-20 16:06 36.732588 -122.050424 279 6732ft 274kts
27-Mar-20 16:07 36.755046 -122.140618 310 6579ft 281kts
27-Mar-20 16:08 36.818987 -122.200178 324 6828ft 296kts
27-Mar-20 16:09 36.891813 -122.264904 323 12052ft 328kts
27-Mar-20 16:10 36.968955 -122.333391 323 16130ft 342kts
27-Mar-20 16:11 37.045985 -122.401953 323 17817ft 344kts
27-Mar-20 16:12 37.131483 -122.460379 340 18677ft 336kts
27-Mar-20 16:13 37.218338 -122.497232 340 19716ft 338kts
27-Mar-20 16:14 37.310085 -122.536256 340 20925ft 356kts
27-Mar-20 16:15 37.405210 -122.576859 340 22129ft 364kts
27-Mar-20 16:16 37.501301 -122.617953 340 23329ft 365kts
27-Mar-20 16:17 37.590622 -122.658166 340 24506ft 335kts
27-Mar-20 16:18 37.687884 -122.698468 340 25746ft 398kts
27-Mar-20 16:19 37.799076 -122.746136 340 26970ft 443kts
27-Mar-20 16:20 37.917804 -122.797498 340 28175ft 422kts
27-Mar-20 16:21 38.013336 -122.838898 339 29302ft 313kts
27-Mar-20 16:21 38.085511 -122.863033 0 30300ft 335kts
27-Mar-20 16:23 38.197192 -122.831840 12 31727ft 370kts
27-Mar-20 16:24 38.250879 -122.815595 12 32368ft 383kts
27-Mar-20 16:24 38.339315 -122.788635 12 33378ft 400kts
27-Mar-20 16:25 38.449493 -122.754891 12 34587ft 413kts
27-Mar-20 16:27 38.581345 -122.714329 12 35989ft 421kts
27-Mar-20 16:27 38.676662 -122.684933 12 36992ft 422kts
27-Mar-20 16:28 38.790586 -122.649663 11 38187ft 420kts
27-Mar-20 16:29 38.903424 -122.614622 11 39381ft 414kts
27-Mar-20 16:30 39.015933 -122.579614 11 39935ft 423kts
27-Mar-20 16:31 39.133327 -122.542959 11 39926ft 443kts
27-Mar-20 16:32 39.252607 -122.505511 11 39922ft 436kts
27-Mar-20 16:33 39.369559 -122.468699 11 39919ft 430kts
27-Mar-20 16:34 39.484874 -122.432299 11 39918ft 425kts
27-Mar-20 16:35 39.598769 -122.396186 11 39930ft 409kts
27-Mar-20 16:36 39.709627 -122.360948 11 39928ft 403kts
27-Mar-20 16:37 39.815501 -122.327144 11 39924ft 381kts
27-Mar-20 16:38 39.914074 -122.295624 11 37371ft 360kts
27-Mar-20 16:39 40.016401 -122.262948 12 31526ft 392kts
27-Mar-20 16:40 40.122477 -122.240122 357 25662ft 388kts
27-Mar-20 16:41 40.196728 -122.250230 353 22819ft 356kts
27-Mar-20 16:42 40.274292 -122.260731 353 17698ft 373kts
27-Mar-20 16:43 40.373581 -122.274565 353 12135ft 353kts
27-Mar-20 16:44 40.460121 -122.286674 353 9700ft 281kts
27-Mar-20 16:45 40.536577 -122.305235 332 5767ft 292kts
27-Mar-20 16:46 40.603460 -122.354690 355 3460ft 226kts
27-Mar-20 16:47 40.606047 -122.309786 173 2248ft 199kts
27-Mar-20 16:48 40.560716 -122.297150 170 1190ft 152kts
27-Mar-20 16:49 40.520055 -122.294892 180 538ft 131kts
27-Mar-20 16:50 40.508121 -122.295521 300 505ft 5kts
27-Mar-20 16:51 40.508226 -122.297426 225 505ft 9kts
27-Mar-20 16:52 40.505573 -122.298412 174 505ft 11kts
27-Mar-20 16:53 40.504880 -122.298981 79 505ft 0kts
27-Mar-20 16:54 40.504880 -122.298981 79 505ft 0kts
27-Mar-20 16:55 40.504880 -122.298981 79 505ft 0kts
27-Mar-20 16:56 40.504880 -122.298981 79 505ft 0kts
27-Mar-20 16:57 40.504880 -122.298981 79 505ft 0kts
27-Mar-20 16:58 40.504880 -122.298981 79 505ft 0kts
27-Mar-20 16:59 40.504880 -122.298981 79 505ft 0kts
27-Mar-20 17:00 40.504880 -122.298981 79 505ft 0kts
27-Mar-20 17:01 40.504880 -122.298981 79 505ft 0kts
27-Mar-20 17:02 40.504880 -122.298981 79 505ft 0kts
27-Mar-20 17:03 40.504880 -122.298981 79 505ft 0kts
27-Mar-20 17:04 40.504880 -122.298981 79 505ft 0kts
27-Mar-20 17:05 40.504880 -122.298981 79 505ft 0kts

Navigation Log

Ident Type
Flight plan parsing failed, navigation log unavailable